Time;durP1;ratioP1;P1;durP2;ratioP2;P2;SDS_P1;SDS_P2;PMS_P1;PMS_P2;Temp;Humidity;BMP_temperature;BMP_pressure;BME280_temperature;BME280_humidity;BME280_pressure;Samples;Min_cycle;Max_cycle;Signal;HPM_P1;HPM_P2
2021/08/05 00:00:04;;;;;;;9.98;8.40;;;16.60;78.60;;;;;;4993330;28;20087;-79
2021/08/05 00:02:29;;;;;;;8.43;6.65;;;16.60;78.10;;;;;;4991516;28;20033;-80
2021/08/05 00:04:55;;;;;;;8.43;7.53;;;16.60;77.70;;;;;;4993827;28;20048;-80
2021/08/05 00:07:20;;;;;;;8.70;7.82;;;16.50;77.90;;;;;;4994265;28;20602;-80
2021/08/05 00:09:46;;;;;;;8.85;7.95;;;16.50;79.50;;;;;;4995278;28;20484;-80
2021/08/05 00:12:12;;;;;;;10.10;7.78;;;16.40;79.70;;;;;;4994705;28;20040;-79
2021/08/05 00:14:38;;;;;;;9.10;7.85;;;16.40;79.80;;;;;;4991471;28;20445;-80
2021/08/05 00:17:05;;;;;;;10.15;7.88;;;16.30;80.70;;;;;;4989213;28;20029;-80
2021/08/05 00:19:31;;;;;;;9.00;8.10;;;16.20;81.20;;;;;;4998028;28;20306;-80
2021/08/05 00:21:56;;;;;;;7.22;6.63;;;16.40;80.10;;;;;;4996884;28;20421;-79
2021/08/05 00:24:22;;;;;;;9.15;7.78;;;16.30;79.10;;;;;;4991436;28;20048;-79
2021/08/05 00:26:47;;;;;;;11.38;8.65;;;16.30;80.00;;;;;;4992180;28;20044;-82
2021/08/05 00:29:13;;;;;;;9.57;8.02;;;16.30;79.60;;;;;;4989580;28;20504;-79
2021/08/05 00:31:38;;;;;;;9.65;8.05;;;16.20;80.60;;;;;;5009180;28;20512;-79
2021/08/05 00:34:04;;;;;;;9.30;8.40;;;16.10;82.50;;;;;;4993578;28;20381;-79
2021/08/05 00:36:29;;;;;;;10.10;9.10;;;16.20;80.00;;;;;;4996058;28;20543;-80
2021/08/05 00:38:55;;;;;;;4.60;4.03;;;16.30;79.30;;;;;;4992131;28;20026;-82
2021/08/05 00:41:20;;;;;;;8.70;5.32;;;16.30;78.30;;;;;;4994901;28;20060;-79
2021/08/05 00:43:46;;;;;;;5.05;4.35;;;16.40;78.10;;;;;;4991817;28;20038;-80
2021/08/05 00:46:11;;;;;;;2.80;2.55;;;16.50;77.60;;;;;;4994507;28;20052;-81
2021/08/05 00:48:37;;;;;;;4.13;3.72;;;16.40;77.70;;;;;;4990729;28;20054;-80
2021/08/05 00:51:02;;;;;;;4.82;3.85;;;16.40;77.50;;;;;;4991182;28;20058;-79
2021/08/05 00:53:28;;;;;;;6.00;4.75;;;16.50;77.50;;;;;;4997721;28;20060;-79
2021/08/05 00:55:54;;;;;;;7.72;6.28;;;16.50;77.90;;;;;;4996253;28;20033;-80
2021/08/05 00:58:20;;;;;;;8.07;7.28;;;16.40;77.80;;;;;;4998249;28;20087;-79
2021/08/05 01:00:51;;;;;;;9.93;7.53;;;16.30;80.10;;;;;;4996112;28;20389;-80
2021/08/05 01:03:26;;;;;;;9.13;7.85;;;16.10;81.20;;;;;;4995230;28;20053;-80
2021/08/05 01:06:21;;;;;;;9.75;8.23;;;16.10;82.90;;;;;;4995514;28;20438;-79
2021/08/05 01:08:52;;;;;;;9.80;8.55;;;16.00;83.70;;;;;;5014795;28;20026;-79
2021/08/05 01:11:21;;;;;;;6.75;5.15;;;16.10;81.80;;;;;;4993992;28;20037;-80
2021/08/05 01:13:53;;;;;;;7.03;4.63;;;16.20;79.80;;;;;;4993685;28;20021;-80
2021/08/05 01:16:21;;;;;;;5.25;4.53;;;16.40;80.00;;;;;;4995228;28;20401;-79
2021/08/05 01:18:47;;;;;;;10.52;8.05;;;16.40;79.20;;;;;;5001183;28;20025;-79
2021/08/05 01:21:25;;;;;;;15.23;9.93;;;16.30;80.90;;;;;;5010048;28;20040;-79
2021/08/05 01:23:59;;;;;;;11.85;10.20;;;16.10;81.90;;;;;;5010595;28;20175;-79
2021/08/05 01:26:31;;;;;;;13.30;10.70;;;16.10;82.20;;;;;;4995888;28;20037;-79
2021/08/05 01:28:57;;;;;;;13.88;11.45;;;16.00;82.90;;;;;;5012037;28;20607;-80
2021/08/05 01:31:23;;;;;;;12.55;10.07;;;16.00;83.60;;;;;;5012950;28;20036;-79
2021/08/05 01:33:48;;;;;;;13.63;10.30;;;16.00;83.10;;;;;;4995502;28;20049;-79
2021/08/05 01:36:14;;;;;;;12.20;10.90;;;16.00;83.80;;;;;;4992653;28;20037;-80
2021/08/05 01:38:39;;;;;;;12.55;11.35;;;15.90;83.50;;;;;;4995376;28;20029;-80
2021/08/05 01:41:06;;;;;;;12.00;8.75;;;15.90;83.70;;;;;;4996063;28;20036;-80
2021/08/05 01:43:32;;;;;;;5.65;4.13;;;16.00;83.30;;;;;;4999687;28;20394;-79
2021/08/05 01:45:57;;;;;;;7.15;6.40;;;16.00;82.60;;;;;;4994717;28;20204;-79
2021/08/05 01:48:23;;;;;;;11.18;8.90;;;16.10;82.10;;;;;;4995250;28;20794;-78
2021/08/05 01:50:50;;;;;;;14.82;9.77;;;16.00;83.00;;;;;;4995778;28;20022;-80
2021/08/05 01:53:15;;;;;;;11.55;9.82;;;15.90;83.00;;;;;;4997386;28;20033;-80
2021/08/05 01:55:42;;;;;;;15.05;11.75;;;15.80;84.00;;;;;;4996541;28;20022;-80
2021/08/05 01:58:07;;;;;;;15.23;13.35;;;15.80;85.60;;;;;;5027320;28;20032;-78
2021/08/05 02:00:33;;;;;;;9.32;7.55;;;15.80;85.70;;;;;;4996406;28;20026;-79
2021/08/05 02:02:58;;;;;;;22.67;16.05;;;15.80;84.70;;;;;;5008389;28;20033;-79
2021/08/05 02:05:29;;;;;;;16.70;14.65;;;15.80;85.10;;;;;;5013214;28;20227;-79
2021/08/05 02:08:15;;;;;;;17.75;14.88;;;15.80;84.80;;;;;;4993186;28;20041;-79
2021/08/05 02:10:42;;;;;;;;;;;15.80;85.70;;;;;;5008165;28;20125;-79
2021/08/05 02:13:37;;;;;;;7.10;6.35;;;15.80;85.20;;;;;;5011983;28;19919;-78
2021/08/05 02:16:05;;;;;;;14.93;13.43;;;15.80;83.30;;;;;;5007638;28;20040;-79
2021/08/05 02:18:32;;;;;;;13.60;12.20;;;15.80;83.90;;;;;;5012073;28;20084;-79
2021/08/05 02:20:58;;;;;;;11.48;10.32;;;15.70;83.80;;;;;;5007902;28;20589;-78
2021/08/05 02:23:23;;;;;;;14.90;11.13;;;15.80;83.80;;;;;;4995358;28;20066;-79
2021/08/05 02:25:50;;;;;;;15.35;11.85;;;15.70;84.90;;;;;;5010420;28;20021;-80
2021/08/05 02:28:16;;;;;;;14.23;12.30;;;15.70;85.60;;;;;;4997220;28;20590;-80
2021/08/05 02:30:42;;;;;;;13.73;12.40;;;15.70;85.70;;;;;;4995427;28;20109;-79
2021/08/05 02:33:07;;;;;;;12.75;11.43;;;15.70;85.80;;;;;;5009805;28;20108;-80
2021/08/05 02:35:37;;;;;;;14.40;12.93;;;15.70;85.90;;;;;;4995687;28;20021;-79
2021/08/05 02:38:03;;;;;;;14.90;13.30;;;15.70;86.10;;;;;;5010140;28;20080;-79
2021/08/05 02:40:29;;;;;;;13.10;11.38;;;15.70;84.20;;;;;;4995076;28;20468;-79
2021/08/05 02:42:54;;;;;;;17.77;13.35;;;15.60;85.30;;;;;;4995790;28;20025;-80
2021/08/05 02:45:20;;;;;;;17.25;15.13;;;15.60;85.90;;;;;;4989894;28;20490;-79
2021/08/05 02:47:45;;;;;;;14.90;12.02;;;15.60;86.00;;;;;;5011969;28;20473;-79
2021/08/05 02:50:11;;;;;;;14.50;12.73;;;15.60;84.80;;;;;;4995107;28;20099;-78
2021/08/05 02:52:37;;;;;;;14.52;12.30;;;15.60;85.90;;;;;;4992741;28;20050;-80
2021/08/05 02:55:03;;;;;;;14.13;12.63;;;15.60;85.10;;;;;;5009663;28;20041;-79
2021/08/05 02:57:28;;;;;;;14.73;12.05;;;15.60;83.90;;;;;;4998395;28;20104;-79
2021/08/05 02:59:54;;;;;;;12.13;9.93;;;15.60;83.40;;;;;;5010123;28;20043;-78
2021/08/05 03:02:19;;;;;;;12.57;11.02;;;15.60;83.30;;;;;;4993189;28;20117;-80
2021/08/05 03:04:47;;;;;;;6.50;5.70;;;15.60;84.20;;;;;;4991528;28;20046;-78
2021/08/05 03:07:12;;;;;;;5.50;4.75;;;15.50;84.50;;;;;;4992556;28;20482;-78
2021/08/05 03:09:38;;;;;;;9.18;5.80;;;15.60;83.80;;;;;;4991419;28;20117;-79
2021/08/05 03:12:03;;;;;;;6.20;5.15;;;15.60;82.80;;;;;;5010658;28;20401;-80
2021/08/05 03:14:29;;;;;;;4.78;4.30;;;15.80;83.30;;;;;;5011718;28;20030;-79
2021/08/05 03:16:54;;;;;;;6.60;5.90;;;15.80;84.00;;;;;;4995673;28;20065;-78
2021/08/05 03:19:20;;;;;;;7.95;5.03;;;15.80;82.90;;;;;;5008118;28;20029;-80
2021/08/05 03:21:45;;;;;;;6.05;5.38;;;15.90;83.60;;;;;;4997902;28;20021;-80
2021/08/05 03:24:11;;;;;;;9.05;7.30;;;15.90;83.50;;;;;;5008561;28;20366;-79
2021/08/05 03:26:36;;;;;;;9.45;6.65;;;15.80;83.80;;;;;;4993045;28;20029;-80
2021/08/05 03:29:02;;;;;;;6.70;5.60;;;15.70;83.70;;;;;;5011053;28;20072;-78
2021/08/05 03:31:27;;;;;;;4.80;4.00;;;15.70;85.20;;;;;;4992299;28;20034;-79
2021/08/05 03:33:53;;;;;;;7.30;5.53;;;15.80;83.40;;;;;;4998416;28;20460;-79
2021/08/05 03:36:18;;;;;;;7.88;5.65;;;15.70;83.70;;;;;;4994666;28;20030;-79
2021/08/05 03:38:44;;;;;;;7.10;5.18;;;15.90;85.70;;;;;;4994766;28;20026;-79
2021/08/05 03:41:09;;;;;;;14.25;9.35;;;15.90;84.10;;;;;;5027707;28;20075;-79
2021/08/05 03:43:35;;;;;;;5.93;5.32;;;15.90;84.10;;;;;;4993606;28;20225;-80
2021/08/05 03:46:01;;;;;;;7.20;6.53;;;15.80;83.70;;;;;;4994722;28;20024;-79
2021/08/05 03:48:26;;;;;;;11.55;9.32;;;15.70;83.70;;;;;;4995780;28;20048;-78
2021/08/05 03:50:52;;;;;;;4.80;4.38;;;15.60;84.50;;;;;;4992951;28;20104;-79
2021/08/05 03:53:17;;;;;;;6.88;5.07;;;15.60;83.80;;;;;;4994907;28;20501;-79
2021/08/05 03:55:43;;;;;;;8.18;6.03;;;15.70;85.90;;;;;;5008055;28;20103;-79
2021/08/05 03:58:09;;;;;;;6.18;5.40;;;15.80;85.70;;;;;;4990624;28;20038;-79
2021/08/05 04:00:35;;;;;;;8.68;7.28;;;15.80;85.30;;;;;;4995757;28;20025;-78
2021/08/05 04:03:01;;;;;;;6.10;5.50;;;15.80;84.50;;;;;;4994400;28;20022;-79
2021/08/05 04:05:26;;;;;;;5.50;3.97;;;15.80;86.10;;;;;;4993418;28;20521;-79
2021/08/05 04:07:52;;;;;;;5.75;5.03;;;15.90;86.10;;;;;;4992296;28;20386;-78
2021/08/05 04:10:18;;;;;;;11.60;6.93;;;15.90;87.10;;;;;;4995337;28;20147;-78
2021/08/05 04:12:43;;;;;;;5.70;5.00;;;15.80;86.30;;;;;;4994644;28;20437;-79
2021/08/05 04:15:09;;;;;;;6.82;4.90;;;15.70;85.00;;;;;;4991929;28;20029;-79
2021/08/05 04:17:34;;;;;;;6.03;4.53;;;15.70;85.30;;;;;;4994681;28;20037;-80
2021/08/05 04:20:00;;;;;;;5.80;4.43;;;15.80;85.40;;;;;;4993564;28;20104;-78
2021/08/05 04:22:26;;;;;;;5.43;4.68;;;15.80;86.30;;;;;;4991945;28;20155;-78
2021/08/05 04:24:51;;;;;;;4.85;3.92;;;15.80;86.50;;;;;;4993617;28;20033;-79
2021/08/05 04:27:17;;;;;;;5.40;4.80;;;15.80;86.60;;;;;;4991697;28;20030;-79
2021/08/05 04:29:43;;;;;;;3.97;3.60;;;15.80;87.60;;;;;;4991651;28;20041;-78
2021/08/05 04:32:09;;;;;;;3.75;3.45;;;15.70;86.40;;;;;;5006406;28;20065;-80
2021/08/05 04:34:35;;;;;;;6.30;5.45;;;15.80;87.30;;;;;;5011014;28;20029;-80
2021/08/05 04:37:00;;;;;;;10.73;7.35;;;15.70;85.90;;;;;;4995085;28;20433;-80
2021/08/05 04:39:26;;;;;;;5.20;4.68;;;15.60;88.40;;;;;;4994625;28;20489;-80
2021/08/05 04:41:51;;;;;;;7.15;6.07;;;15.40;87.90;;;;;;5007953;28;20033;-81
2021/08/05 04:44:17;;;;;;;9.43;8.40;;;15.60;86.50;;;;;;4990237;28;20382;-80
2021/08/05 04:46:42;;;;;;;4.95;4.47;;;15.50;88.80;;;;;;4992526;28;20037;-80
2021/08/05 04:49:08;;;;;;;4.70;4.28;;;15.60;87.40;;;;;;4992212;28;20476;-80
2021/08/05 04:51:34;;;;;;;9.15;6.93;;;15.60;86.40;;;;;;4992808;28;20053;-79
2021/08/05 04:54:03;;;;;;;6.20;5.43;;;15.70;86.60;;;;;;4991650;28;20553;-79
2021/08/05 04:56:29;;;;;;;13.60;10.65;;;15.70;86.70;;;;;;4993428;28;20034;-80
2021/08/05 04:58:55;;;;;;;9.80;8.77;;;15.70;86.20;;;;;;4996030;28;20095;-82
2021/08/05 05:01:20;;;;;;;11.10;9.98;;;15.80;86.50;;;;;;4992153;28;20033;-80
2021/08/05 05:03:46;;;;;;;4.70;3.92;;;15.80;88.50;;;;;;4993214;28;20452;-81
2021/08/05 05:06:11;;;;;;;6.30;4.20;;;15.90;89.40;;;;;;5008079;28;20030;-81
2021/08/05 05:08:37;;;;;;;12.65;10.25;;;15.90;87.30;;;;;;4991392;28;20035;-81
2021/08/05 05:11:02;;;;;;;12.93;10.73;;;16.00;88.80;;;;;;5007055;28;20389;-81
2021/08/05 05:13:28;;;;;;;12.65;11.23;;;16.10;90.20;;;;;;5008904;28;20167;-80
2021/08/05 05:15:54;;;;;;;13.30;11.75;;;16.10;90.60;;;;;;4990813;28;20132;-80
2021/08/05 05:18:21;;;;;;;16.85;13.80;;;16.10;88.60;;;;;;4994484;28;20575;-80
2021/08/05 05:20:47;;;;;;;11.20;9.00;;;16.20;88.20;;;;;;5010292;28;20067;-81
2021/08/05 05:23:12;;;;;;;7.35;6.28;;;16.30;88.20;;;;;;4990809;28;20033;-81
2021/08/05 05:25:38;;;;;;;12.90;11.07;;;16.30;88.10;;;;;;4993457;28;20034;-80
2021/08/05 05:28:04;;;;;;;8.65;7.78;;;16.30;85.80;;;;;;4992740;28;20334;-80
2021/08/05 05:30:30;;;;;;;9.35;8.32;;;16.40;85.80;;;;;;4993045;28;20033;-81
2021/08/05 05:32:56;;;;;;;11.38;9.63;;;16.40;85.90;;;;;;4990475;28;20030;-79
2021/08/05 05:35:21;;;;;;;9.80;8.20;;;16.40;86.00;;;;;;4988736;28;20128;-80
2021/08/05 05:37:54;;;;;;;12.95;11.68;;;16.50;86.30;;;;;;4993017;28;20040;-80
2021/08/05 05:40:20;;;;;;;12.82;7.93;;;16.40;85.70;;;;;;4994691;28;20120;-80
2021/08/05 05:42:45;;;;;;;10.65;9.45;;;16.50;86.20;;;;;;5011885;28;20033;-80
2021/08/05 05:45:11;;;;;;;15.15;12.48;;;16.50;85.40;;;;;;5002468;28;20464;-80
2021/08/05 05:47:37;;;;;;;12.68;10.35;;;16.60;85.40;;;;;;4995317;28;20033;-80
2021/08/05 05:50:03;;;;;;;15.10;11.18;;;16.60;86.00;;;;;;4976686;28;20052;-80
2021/08/05 05:52:29;;;;;;;12.25;10.45;;;16.70;85.70;;;;;;5021046;28;20037;-80
2021/08/05 05:54:54;;;;;;;11.30;10.15;;;16.70;85.10;;;;;;5010541;28;20129;-80
2021/08/05 05:57:20;;;;;;;15.02;10.88;;;16.80;85.20;;;;;;4993737;28;20034;-79
2021/08/05 05:59:46;;;;;;;15.68;10.60;;;16.80;85.40;;;;;;4996462;28;20099;-80
2021/08/05 06:02:17;;;;;;;21.02;14.48;;;16.90;84.80;;;;;;4997047;28;20042;-81
2021/08/05 06:04:43;;;;;;;14.02;12.18;;;17.00;84.80;;;;;;4997870;28;20048;-79
2021/08/05 06:07:09;;;;;;;20.13;15.50;;;17.00;85.60;;;;;;4999694;28;20040;-80
2021/08/05 06:09:35;;;;;;;17.08;13.93;;;17.10;86.70;;;;;;5013013;28;20473;-81
2021/08/05 06:12:01;;;;;;;22.73;18.52;;;17.20;85.40;;;;;;4998774;28;20030;-80
2021/08/05 06:14:27;;;;;;;25.50;20.88;;;17.30;85.50;;;;;;4998615;28;20463;-79
2021/08/05 06:16:52;;;;;;;26.35;19.92;;;17.40;86.30;;;;;;4994928;28;20036;-80
2021/08/05 06:19:18;;;;;;;17.83;15.45;;;17.50;86.40;;;;;;4997861;28;20025;-80
2021/08/05 06:21:43;;;;;;;17.55;14.75;;;17.60;85.70;;;;;;5013629;28;20028;-80
2021/08/05 06:24:12;;;;;;;20.50;17.40;;;17.70;85.40;;;;;;4994823;28;20037;-80
2021/08/05 06:26:38;;;;;;;22.48;15.63;;;17.90;85.40;;;;;;4994562;28;20486;-80
2021/08/05 06:29:07;;;;;;;17.75;15.90;;;18.00;85.70;;;;;;4995541;28;20115;-80
2021/08/05 06:31:34;;;;;;;23.08;19.10;;;18.10;86.10;;;;;;4997608;28;20488;-80
2021/08/05 06:34:00;;;;;;;18.58;15.18;;;18.20;85.80;;;;;;5008330;28;20227;-80
2021/08/05 06:36:26;;;;;;;14.32;12.50;;;18.20;85.30;;;;;;4997800;28;20168;-80
2021/08/05 06:38:51;;;;;;;25.58;21.02;;;18.30;84.20;;;;;;5031502;28;20459;-79
2021/08/05 06:41:17;;;;;;;27.20;22.77;;;18.40;85.00;;;;;;5027782;28;20609;-79
2021/08/05 06:43:42;;;;;;;31.45;24.05;;;18.40;86.30;;;;;;4999100;28;20021;-82
2021/08/05 06:46:08;;;;;;;34.25;26.98;;;18.50;86.30;;;;;;5010875;28;20037;-80
2021/08/05 06:48:33;;;;;;;34.28;26.88;;;18.60;87.10;;;;;;4993945;28;20029;-80
2021/08/05 06:50:59;;;;;;;26.88;19.20;;;18.70;87.80;;;;;;5009750;28;20071;-80
2021/08/05 06:53:25;;;;;;;14.40;12.32;;;18.90;87.70;;;;;;4994492;28;20041;-81
2021/08/05 06:55:50;;;;;;;15.27;11.07;;;19.00;84.90;;;;;;4993966;28;20029;-80
2021/08/05 06:58:20;;;;;;;23.50;20.30;;;19.10;85.90;;;;;;4989737;28;20108;-81
2021/08/05 07:00:49;;;;;;;29.65;22.33;;;19.40;85.70;;;;;;4994615;28;20030;-80
2021/08/05 07:03:14;;;;;;;29.77;25.10;;;19.60;86.90;;;;;;5011118;28;20599;-81
2021/08/05 07:05:40;;;;;;;21.98;18.92;;;19.80;87.50;;;;;;4996431;28;20059;-80
2021/08/05 07:08:06;;;;;;;36.20;28.15;;;20.00;86.20;;;;;;4996168;28;20034;-81
2021/08/05 07:10:31;;;;;;;34.80;27.38;;;20.40;88.80;;;;;;4993177;28;20390;-81
2021/08/05 07:12:57;;;;;;;32.10;27.40;;;20.80;87.60;;;;;;5010595;28;20041;-80
2021/08/05 07:15:22;;;;;;;34.58;25.92;;;21.20;88.80;;;;;;5011278;28;20134;-80
2021/08/05 07:17:48;;;;;;;27.90;19.88;;;21.50;89.40;;;;;;4991386;28;20036;-80
2021/08/05 07:20:14;;;;;;;13.70;12.05;;;21.80;88.10;;;;;;5006242;28;20041;-82
2021/08/05 07:22:40;;;;;;;31.27;24.50;;;22.20;86.20;;;;;;4992052;28;20122;-81
2021/08/05 07:25:07;;;;;;;31.10;25.63;;;22.40;88.10;;;;;;4976013;28;20125;-81
2021/08/05 07:27:33;;;;;;;29.08;20.13;;;22.90;88.50;;;;;;4995377;28;20116;-81
2021/08/05 07:29:59;;;;;;;34.92;26.48;;;23.20;80.90;;;;;;4992628;28;20117;-81
2021/08/05 07:32:24;;;;;;;20.23;17.90;;;23.60;87.80;;;;;;4996066;28;20644;-82
2021/08/05 07:34:50;;;;;;;20.60;15.32;;;23.90;87.40;;;;;;5007432;28;20108;-83
2021/08/05 07:37:15;;;;;;;19.35;16.13;;;24.20;82.10;;;;;;4992450;28;20164;-80
2021/08/05 07:39:41;;;;;;;21.80;15.98;;;23.90;81.70;;;;;;4993649;28;20811;-82
2021/08/05 07:42:06;;;;;;;30.25;23.55;;;24.30;81.20;;;;;;4978294;28;20091;-82
2021/08/05 07:44:32;;;;;;;20.13;15.43;;;24.50;84.30;;;;;;4995426;28;20056;-81
2021/08/05 07:46:57;;;;;;;14.43;12.65;;;24.80;82.70;;;;;;5006849;28;20033;-81
2021/08/05 07:49:23;;;;;;;30.92;25.38;;;24.70;82.20;;;;;;4992011;28;20115;-82
2021/08/05 07:51:48;;;;;;;31.70;27.10;;;25.40;81.70;;;;;;5013098;28;20040;-82
2021/08/05 07:54:14;;;;;;;26.27;23.05;;;25.70;79.90;;;;;;5010632;28;20490;-80
2021/08/05 07:56:39;;;;;;;22.20;19.70;;;25.90;79.60;;;;;;5011904;28;20049;-82
2021/08/05 07:59:05;;;;;;;25.27;22.55;;;26.00;78.20;;;;;;4980207;28;20029;-82
2021/08/05 08:01:30;;;;;;;16.83;12.68;;;26.10;77.90;;;;;;5003922;28;20033;-82
2021/08/05 08:03:56;;;;;;;21.60;17.70;;;26.10;77.30;;;;;;4994948;28;20041;-82
2021/08/05 08:06:22;;;;;;;14.85;12.15;;;26.10;77.20;;;;;;4992628;28;20026;-82
2021/08/05 08:08:48;;;;;;;17.23;13.75;;;26.30;74.80;;;;;;5011642;28;20053;-82
2021/08/05 08:11:15;;;;;;;16.38;12.73;;;26.20;76.60;;;;;;4993334;28;20025;-82
2021/08/05 08:13:41;;;;;;;16.27;13.15;;;26.20;75.20;;;;;;4994739;28;20029;-83
2021/08/05 08:16:06;;;;;;;21.58;19.05;;;26.20;73.10;;;;;;4994427;28;20037;-84
2021/08/05 08:18:35;;;;;;;22.48;20.05;;;26.50;76.90;;;;;;4988891;28;20474;-84
2021/08/05 08:21:01;;;;;;;27.05;23.33;;;26.90;76.10;;;;;;5006336;28;20028;-85
2021/08/05 08:23:26;;;;;;;20.17;18.08;;;27.30;73.60;;;;;;4992685;28;20433;-85
2021/08/05 08:25:52;;;;;;;25.23;22.65;;;27.40;72.90;;;;;;4994359;28;20404;-84
2021/08/05 08:28:17;;;;;;;20.13;17.67;;;27.50;72.80;;;;;;5012634;28;20471;-85
2021/08/05 08:30:43;;;;;;;17.83;13.02;;;27.40;72.50;;;;;;4994576;28;20032;-84
2021/08/05 08:33:08;;;;;;;15.65;12.82;;;27.70;70.90;;;;;;5004300;28;20107;-84
2021/08/05 08:35:34;;;;;;;12.80;11.45;;;27.60;71.50;;;;;;4989944;28;20401;-85
2021/08/05 08:37:59;;;;;;;16.15;12.70;;;27.80;71.20;;;;;;5017710;28;20160;-84
2021/08/05 08:40:25;;;;;;;14.00;11.25;;;27.80;69.90;;;;;;4993428;28;20349;-83
2021/08/05 08:42:51;;;;;;;14.63;10.90;;;28.00;71.40;;;;;;5009583;28;20036;-84
2021/08/05 08:45:16;;;;;;;14.45;11.85;;;28.30;67.60;;;;;;4993580;28;20048;-83
2021/08/05 08:47:47;;;;;;;21.50;19.40;;;28.50;68.20;;;;;;4992680;28;20036;-83
2021/08/05 08:50:12;;;;;;;15.25;13.50;;;28.90;67.70;;;;;;4973671;28;20037;-83
2021/08/05 08:52:40;;;;;;;12.80;10.90;;;29.00;67.40;;;;;;4995311;28;20486;-82
2021/08/05 08:55:06;;;;;;;20.85;14.80;;;28.80;67.10;;;;;;4993316;28;20184;-82
2021/08/05 08:57:33;;;;;;;14.30;12.80;;;28.80;67.40;;;;;;4991725;28;20061;-81
2021/08/05 08:59:59;;;;;;;10.85;9.63;;;28.80;68.50;;;;;;5021831;28;20045;-81
2021/08/05 09:02:24;;;;;;;21.15;17.05;;;29.00;66.70;;;;;;4998187;28;20432;-81
2021/08/05 09:04:50;;;;;;;15.90;12.50;;;29.30;65.80;;;;;;4994950;28;20094;-80
2021/08/05 09:07:16;;;;;;;10.57;9.38;;;29.10;65.40;;;;;;4991230;28;20033;-80
2021/08/05 09:09:41;;;;;;;18.55;13.82;;;29.00;65.20;;;;;;4994557;28;20145;-80
2021/08/05 09:12:15;;;;;;;13.73;11.18;;;28.80;66.10;;;;;;4991075;28;20437;-80
2021/08/05 09:14:41;;;;;;;22.20;18.60;;;28.90;65.60;;;;;;4995642;28;20516;-79
2021/08/05 09:17:17;;;;;;;23.58;20.45;;;29.00;65.20;;;;;;5013562;28;20404;-79
2021/08/05 09:19:43;;;;;;;12.77;9.98;;;29.30;63.80;;;;;;4999992;28;20033;-80
2021/08/05 09:22:08;;;;;;;19.38;17.27;;;29.30;63.30;;;;;;4996381;28;20437;-79
2021/08/05 09:24:34;;;;;;;12.57;11.27;;;29.00;64.80;;;;;;4996469;28;20128;-80
2021/08/05 09:27:02;;;;;;;12.00;10.80;;;29.20;63.30;;;;;;5012948;28;20159;-79
2021/08/05 09:29:28;;;;;;;13.27;11.98;;;29.50;63.40;;;;;;5000615;28;20029;-79
2021/08/05 09:31:54;;;;;;;10.43;8.93;;;29.60;64.50;;;;;;5013662;28;20599;-79
2021/08/05 09:34:36;;;;;;;10.43;9.00;;;29.70;64.00;;;;;;5008051;28;20045;-79
2021/08/05 09:37:06;;;;;;;12.85;11.52;;;29.90;63.40;;;;;;4993158;28;20084;-79
2021/08/05 09:39:33;;;;;;;9.52;8.25;;;29.90;62.30;;;;;;5012972;28;20405;-78
2021/08/05 09:42:00;;;;;;;8.82;7.93;;;30.00;62.90;;;;;;4993577;28;20030;-78
2021/08/05 09:44:34;;;;;;;11.65;9.10;;;30.10;62.60;;;;;;4994656;28;20041;-79
2021/08/05 09:47:03;;;;;;;10.27;9.27;;;30.20;61.80;;;;;;5026671;28;20517;-80
2021/08/05 09:49:29;;;;;;;10.40;9.38;;;30.30;60.10;;;;;;4998436;28;20124;-78
2021/08/05 09:51:59;;;;;;;8.50;7.70;;;30.50;59.10;;;;;;5011231;28;20569;-79
2021/08/05 09:54:48;;;;;;;9.65;8.68;;;30.30;60.30;;;;;;4978436;28;20040;-79
2021/08/05 09:57:34;;;;;;;8.40;7.63;;;30.10;61.50;;;;;;5008967;28;20030;-79
2021/08/05 10:00:04;;;;;;;9.63;8.70;;;30.20;61.10;;;;;;5009263;28;20041;-79
2021/08/05 10:02:49;;;;;;;14.57;13.10;;;30.30;59.10;;;;;;4997356;28;20029;-78
2021/08/05 10:05:21;;;;;;;11.27;10.18;;;30.40;59.10;;;;;;4997189;28;20095;-79
2021/08/05 10:07:54;;;;;;;10.88;9.23;;;30.60;58.50;;;;;;5025498;28;20056;-79
2021/08/05 10:10:27;;;;;;;7.82;7.13;;;30.50;59.80;;;;;;5003179;28;20041;-79
2021/08/05 10:12:54;;;;;;;11.32;10.00;;;30.50;60.30;;;;;;4993406;28;20037;-79
2021/08/05 10:15:20;;;;;;;9.80;8.60;;;30.70;59.30;;;;;;5028548;28;20374;-79
2021/08/05 10:17:48;;;;;;;8.18;7.38;;;30.60;59.40;;;;;;5010335;28;20508;-79
2021/08/05 10:20:13;;;;;;;11.43;10.32;;;30.90;60.50;;;;;;4995065;28;20033;-79
2021/08/05 10:22:39;;;;;;;10.13;8.90;;;31.40;58.30;;;;;;4991017;28;20601;-79
2021/08/05 10:25:07;;;;;;;11.25;9.07;;;31.20;57.70;;;;;;4991316;28;20122;-79
2021/08/05 10:27:32;;;;;;;13.23;9.77;;;31.70;57.80;;;;;;5006476;28;20033;-79
2021/08/05 10:29:58;;;;;;;8.45;7.55;;;31.60;56.90;;;;;;5008713;28;20437;-79
2021/08/05 10:32:24;;;;;;;6.65;5.97;;;31.60;57.90;;;;;;4998653;28;20401;-79
2021/08/05 10:34:53;;;;;;;10.80;9.73;;;31.50;58.40;;;;;;4999053;28;20030;-79
2021/08/05 10:37:18;;;;;;;8.13;6.63;;;31.50;58.30;;;;;;5010841;28;20030;-79
2021/08/05 10:39:45;;;;;;;9.05;8.25;;;31.50;58.30;;;;;;5009657;28;20029;-79
2021/08/05 10:42:16;;;;;;;8.48;7.68;;;31.50;55.80;;;;;;5009790;28;20029;-79
2021/08/05 10:44:42;;;;;;;8.45;7.72;;;31.80;57.60;;;;;;5001522;28;20033;-78
2021/08/05 10:47:11;;;;;;;9.25;6.57;;;31.50;55.10;;;;;;4993513;28;20549;-79
2021/08/05 10:49:36;;;;;;;7.32;6.63;;;31.30;56.90;;;;;;4998028;28;20040;-79
2021/08/05 10:52:02;;;;;;;10.05;7.82;;;31.40;55.60;;;;;;4998233;28;20034;-79
2021/08/05 10:54:46;;;;;;;12.70;7.78;;;31.50;57.80;;;;;;5010880;28;20033;-79
2021/08/05 10:57:13;;;;;;;7.55;6.60;;;31.60;57.00;;;;;;5005173;28;20508;-79
2021/08/05 11:00:13;;;;;;;10.43;9.32;;;32.10;55.20;;;;;;4994432;28;20635;-79
2021/08/05 11:02:42;;;;;;;6.78;6.05;;;32.40;54.60;;;;;;4978273;28;20433;-79
2021/08/05 11:05:08;;;;;;;8.48;6.03;;;32.40;54.70;;;;;;4995245;28;20583;-79
2021/08/05 11:07:34;;;;;;;7.95;6.88;;;32.10;54.10;;;;;;4991238;28;20029;-79
2021/08/05 11:10:15;;;;;;;8.93;6.75;;;32.40;55.80;;;;;;4994283;28;20099;-79
2021/08/05 11:12:53;;;;;;;5.70;5.20;;;31.80;53.70;;;;;;5008328;28;20048;-79
2021/08/05 11:15:22;;;;;;;6.47;4.97;;;32.20;56.10;;;;;;5026462;28;20448;-79
2021/08/05 11:18:16;;;;;;;6.00;4.65;;;32.60;53.30;;;;;;5010035;28;20017;-79
2021/08/05 11:20:51;;;;;;;5.40;4.93;;;32.80;53.80;;;;;;5025806;28;20033;-80
2021/08/05 11:23:30;;;;;;;6.20;5.18;;;33.10;54.10;;;;;;5024836;28;20037;-79
2021/08/05 11:25:56;;;;;;;5.28;4.88;;;33.30;52.50;;;;;;5026894;28;20523;-79
2021/08/05 11:28:25;;;;;;;4.63;3.65;;;33.40;51.10;;;;;;5026981;28;20026;-79
2021/08/05 11:31:03;;;;;;;6.93;3.83;;;33.60;51.60;;;;;;5007464;28;20056;-79
2021/08/05 11:33:38;;;;;;;3.55;3.00;;;33.70;51.00;;;;;;4990594;28;20032;-79
2021/08/05 11:36:34;;;;;;;4.50;3.70;;;34.00;50.30;;;;;;5019647;28;20125;-79
2021/08/05 11:39:00;;;;;;;;;;;34.00;51.20;;;;;;5010110;28;20275;-78
2021/08/05 11:41:41;;;;;;;3.85;3.55;;;34.20;48.80;;;;;;4316233;28;10000629;-79
2021/08/05 11:44:28;;;;;;;4.97;3.90;;;34.10;48.60;;;;;;5013329;28;20184;-79
2021/08/05 11:47:06;;;;;;;4.20;3.42;;;33.90;48.70;;;;;;4989943;28;20436;-79
2021/08/05 11:49:43;;;;;;;3.58;3.28;;;33.60;50.40;;;;;;5023987;28;20489;-78
2021/08/05 11:52:20;;;;;;;4.80;4.20;;;33.60;50.30;;;;;;5008397;28;20041;-79
2021/08/05 11:54:50;;;;;;;3.72;3.42;;;33.70;49.40;;;;;;5006851;28;20484;-79
2021/08/05 11:57:17;;;;;;;3.50;3.20;;;33.90;50.20;;;;;;5003495;28;20044;-79
2021/08/05 11:59:45;;;;;;;4.07;3.20;;;33.70;50.90;;;;;;4989620;28;20041;-79
2021/08/05 12:02:32;;;;;;;3.50;3.20;;;34.20;50.30;;;;;;5008558;28;20176;-79
2021/08/05 12:04:58;;;;;;;3.60;3.30;;;34.30;50.10;;;;;;5005127;28;20040;-79
2021/08/05 12:07:25;;;;;;;3.63;3.13;;;34.60;49.70;;;;;;5025337;28;20037;-76
2021/08/05 12:10:05;;;;;;;4.50;4.05;;;34.70;48.40;;;;;;5004746;28;20028;-79
2021/08/05 12:12:55;;;;;;;3.83;3.25;;;34.70;47.40;;;;;;5023815;28;20041;-79
2021/08/05 12:15:24;;;;;;;3.92;3.60;;;34.70;48.90;;;;;;5000966;28;20490;-79
2021/08/05 12:17:50;;;;;;;4.32;3.50;;;34.40;49.70;;;;;;5007981;28;20378;-79
2021/08/05 12:20:17;;;;;;;4.28;3.17;;;34.60;49.30;;;;;;4994335;28;20034;-79
2021/08/05 12:22:45;;;;;;;3.33;2.85;;;34.90;48.20;;;;;;5007971;28;20033;-79
2021/08/05 12:25:25;;;;;;;4.60;4.20;;;35.10;47.40;;;;;;4993304;28;20075;-76
2021/08/05 12:27:58;;;;;;;3.72;3.42;;;35.00;45.40;;;;;;5023122;28;20091;-79
2021/08/05 12:30:31;;;;;;;4.63;4.00;;;34.90;45.30;;;;;;5009524;28;20335;-79
2021/08/05 12:33:02;;;;;;;4.20;3.67;;;34.90;45.70;;;;;;4993234;28;20501;-79
2021/08/05 12:35:28;;;;;;;3.83;3.38;;;34.80;45.40;;;;;;4993269;28;20033;-79
2021/08/05 12:38:10;;;;;;;3.63;2.80;;;34.70;45.80;;;;;;5000253;28;20370;-79
2021/08/05 12:40:45;;;;;;;3.78;3.47;;;34.50;47.10;;;;;;4995383;28;20041;-78